sensor_id;sensor_type;location;lat;lon;timestamp;temperature;humidity
2955;DHT22;1487;51.470;6.938;2023-03-14T00:00:06;11.10;99.90
2955;DHT22;1487;51.470;6.938;2023-03-14T00:02:34;11.00;99.90
2955;DHT22;1487;51.470;6.938;2023-03-14T00:05:01;11.00;99.90
2955;DHT22;1487;51.470;6.938;2023-03-14T00:07:32;11.00;99.90
2955;DHT22;1487;51.470;6.938;2023-03-14T00:10:01;11.00;99.90
2955;DHT22;1487;51.470;6.938;2023-03-14T00:12:30;11.00;99.90
2955;DHT22;1487;51.470;6.938;2023-03-14T00:14:58;11.00;99.90
2955;DHT22;1487;51.470;6.938;2023-03-14T00:17:28;11.10;99.90
2955;DHT22;1487;51.470;6.938;2023-03-14T00:19:56;11.10;99.90
2955;DHT22;1487;51.470;6.938;2023-03-14T00:22:23;11.20;99.90
2955;DHT22;1487;51.470;6.938;2023-03-14T00:24:50;11.20;99.90
2955;DHT22;1487;51.470;6.938;2023-03-14T00:27:17;11.20;99.90
2955;DHT22;1487;51.470;6.938;2023-03-14T00:29:44;11.30;99.90
2955;DHT22;1487;51.470;6.938;2023-03-14T00:32:12;11.30;99.90
2955;DHT22;1487;51.470;6.938;2023-03-14T00:34:39;11.30;99.90
2955;DHT22;1487;51.470;6.938;2023-03-14T00:37:06;11.40;99.90
2955;DHT22;1487;51.470;6.938;2023-03-14T00:39:33;11.40;99.90
2955;DHT22;1487;51.470;6.938;2023-03-14T00:42:00;11.40;99.90
2955;DHT22;1487;51.470;6.938;2023-03-14T00:44:27;11.50;99.90
2955;DHT22;1487;51.470;6.938;2023-03-14T00:46:54;11.40;99.90
2955;DHT22;1487;51.470;6.938;2023-03-14T00:49:22;11.00;99.90
2955;DHT22;1487;51.470;6.938;2023-03-14T00:51:49;10.70;99.90
2955;DHT22;1487;51.470;6.938;2023-03-14T00:54:17;10.40;99.90
2955;DHT22;1487;51.470;6.938;2023-03-14T00:56:44;10.10;99.90
2955;DHT22;1487;51.470;6.938;2023-03-14T00:59:11;10.00;99.90
2955;DHT22;1487;51.470;6.938;2023-03-14T01:01:39;9.90;99.90
2955;DHT22;1487;51.470;6.938;2023-03-14T01:04:07;9.80;99.90
2955;DHT22;1487;51.470;6.938;2023-03-14T01:06:35;9.60;99.90
2955;DHT22;1487;51.470;6.938;2023-03-14T01:09:03;9.60;99.90
2955;DHT22;1487;51.470;6.938;2023-03-14T01:11:32;9.50;99.90
2955;DHT22;1487;51.470;6.938;2023-03-14T01:13:59;9.40;99.90
2955;DHT22;1487;51.470;6.938;2023-03-14T01:16:27;9.40;99.90
2955;DHT22;1487;51.470;6.938;2023-03-14T01:18:55;9.40;99.90
2955;DHT22;1487;51.470;6.938;2023-03-14T01:21:23;9.30;99.90
2955;DHT22;1487;51.470;6.938;2023-03-14T01:23:53;9.30;99.90
2955;DHT22;1487;51.470;6.938;2023-03-14T01:26:23;9.30;99.90
2955;DHT22;1487;51.470;6.938;2023-03-14T01:28:51;9.30;99.90
2955;DHT22;1487;51.470;6.938;2023-03-14T01:31:19;9.30;99.90
2955;DHT22;1487;51.470;6.938;2023-03-14T01:33:47;9.30;99.90
2955;DHT22;1487;51.470;6.938;2023-03-14T01:36:14;9.30;99.90
2955;DHT22;1487;51.470;6.938;2023-03-14T01:38:41;9.30;99.90
2955;DHT22;1487;51.470;6.938;2023-03-14T01:41:13;9.20;99.90
2955;DHT22;1487;51.470;6.938;2023-03-14T01:43:40;9.20;99.90
2955;DHT22;1487;51.470;6.938;2023-03-14T01:46:19;9.20;99.90
2955;DHT22;1487;51.470;6.938;2023-03-14T01:48:52;9.20;99.90
2955;DHT22;1487;51.470;6.938;2023-03-14T01:51:24;9.20;99.90
2955;DHT22;1487;51.470;6.938;2023-03-14T01:53:55;9.10;99.90
2955;DHT22;1487;51.470;6.938;2023-03-14T01:56:25;9.10;99.90
2955;DHT22;1487;51.470;6.938;2023-03-14T01:58:53;9.10;99.90
2955;DHT22;1487;51.470;6.938;2023-03-14T02:01:22;9.10;99.90
2955;DHT22;1487;51.470;6.938;2023-03-14T02:03:53;9.10;99.90
2955;DHT22;1487;51.470;6.938;2023-03-14T02:06:24;9.10;99.90
2955;DHT22;1487;51.470;6.938;2023-03-14T02:08:53;9.10;99.90
2955;DHT22;1487;51.470;6.938;2023-03-14T02:11:21;9.10;99.90
2955;DHT22;1487;51.470;6.938;2023-03-14T02:13:50;9.10;99.90
2955;DHT22;1487;51.470;6.938;2023-03-14T02:16:18;9.20;99.90
2955;DHT22;1487;51.470;6.938;2023-03-14T02:18:45;9.20;99.90
2955;DHT22;1487;51.470;6.938;2023-03-14T02:21:16;9.20;99.90
2955;DHT22;1487;51.470;6.938;2023-03-14T02:23:53;9.20;99.90
2955;DHT22;1487;51.470;6.938;2023-03-14T02:26:28;9.20;99.90
2955;DHT22;1487;51.470;6.938;2023-03-14T02:29:00;9.20;99.90
2955;DHT22;1487;51.470;6.938;2023-03-14T02:31:27;9.20;99.90
2955;DHT22;1487;51.470;6.938;2023-03-14T02:33:55;9.30;99.90
2955;DHT22;1487;51.470;6.938;2023-03-14T02:36:23;9.20;99.90
2955;DHT22;1487;51.470;6.938;2023-03-14T02:38:55;9.30;99.90
2955;DHT22;1487;51.470;6.938;2023-03-14T02:41:25;9.30;99.90
2955;DHT22;1487;51.470;6.938;2023-03-14T02:43:52;9.30;99.90
2955;DHT22;1487;51.470;6.938;2023-03-14T02:46:21;9.30;99.90
2955;DHT22;1487;51.470;6.938;2023-03-14T02:48:50;9.30;99.90
2955;DHT22;1487;51.470;6.938;2023-03-14T02:51:18;9.30;99.90
2955;DHT22;1487;51.470;6.938;2023-03-14T02:53:46;9.30;99.90
2955;DHT22;1487;51.470;6.938;2023-03-14T02:56:14;9.40;99.90
2955;DHT22;1487;51.470;6.938;2023-03-14T02:58:41;9.40;99.90
2955;DHT22;1487;51.470;6.938;2023-03-14T03:01:07;9.40;99.90
2955;DHT22;1487;51.470;6.938;2023-03-14T03:03:36;9.40;99.90
2955;DHT22;1487;51.470;6.938;2023-03-14T03:06:03;9.40;99.90
2955;DHT22;1487;51.470;6.938;2023-03-14T03:08:31;9.40;99.90
2955;DHT22;1487;51.470;6.938;2023-03-14T03:10:58;9.40;99.90
2955;DHT22;1487;51.470;6.938;2023-03-14T03:13:25;9.40;99.90
2955;DHT22;1487;51.470;6.938;2023-03-14T03:15:54;9.40;99.90
2955;DHT22;1487;51.470;6.938;2023-03-14T03:18:21;9.40;99.90
2955;DHT22;1487;51.470;6.938;2023-03-14T03:20:49;9.40;99.90
2955;DHT22;1487;51.470;6.938;2023-03-14T03:23:16;9.50;99.90
2955;DHT22;1487;51.470;6.938;2023-03-14T03:25:48;9.50;99.90
2955;DHT22;1487;51.470;6.938;2023-03-14T03:28:15;9.50;99.90
2955;DHT22;1487;51.470;6.938;2023-03-14T03:30:43;9.50;99.90
2955;DHT22;1487;51.470;6.938;2023-03-14T03:33:10;9.50;99.90
2955;DHT22;1487;51.470;6.938;2023-03-14T03:35:43;9.50;99.90
2955;DHT22;1487;51.470;6.938;2023-03-14T03:38:12;9.50;99.90
2955;DHT22;1487;51.470;6.938;2023-03-14T03:40:39;9.50;99.90
2955;DHT22;1487;51.470;6.938;2023-03-14T03:43:06;9.60;99.90
2955;DHT22;1487;51.470;6.938;2023-03-14T03:45:33;9.60;99.90
2955;DHT22;1487;51.470;6.938;2023-03-14T03:48:00;9.60;99.90
2955;DHT22;1487;51.470;6.938;2023-03-14T03:50:27;9.60;99.90
2955;DHT22;1487;51.470;6.938;2023-03-14T03:52:54;9.60;99.90
2955;DHT22;1487;51.470;6.938;2023-03-14T03:55:22;9.50;99.90
2955;DHT22;1487;51.470;6.938;2023-03-14T03:57:49;9.50;99.90
2955;DHT22;1487;51.470;6.938;2023-03-14T04:00:16;9.40;99.90
2955;DHT22;1487;51.470;6.938;2023-03-14T04:02:43;9.30;99.90
2955;DHT22;1487;51.470;6.938;2023-03-14T04:05:10;9.20;99.90
2955;DHT22;1487;51.470;6.938;2023-03-14T04:07:37;9.20;99.90
2955;DHT22;1487;51.470;6.938;2023-03-14T04:10:04;9.10;99.90
2955;DHT22;1487;51.470;6.938;2023-03-14T04:12:33;9.10;99.90
2955;DHT22;1487;51.470;6.938;2023-03-14T04:15:00;9.10;99.90
2955;DHT22;1487;51.470;6.938;2023-03-14T04:17:27;9.10;99.90
2955;DHT22;1487;51.470;6.938;2023-03-14T04:19:53;9.10;99.90
2955;DHT22;1487;51.470;6.938;2023-03-14T04:22:20;9.10;99.90
2955;DHT22;1487;51.470;6.938;2023-03-14T04:24:47;9.10;99.90
2955;DHT22;1487;51.470;6.938;2023-03-14T04:27:14;9.10;99.90
2955;DHT22;1487;51.470;6.938;2023-03-14T04:29:43;9.10;99.90
2955;DHT22;1487;51.470;6.938;2023-03-14T04:32:10;8.90;99.90
2955;DHT22;1487;51.470;6.938;2023-03-14T04:34:38;8.90;99.90
2955;DHT22;1487;51.470;6.938;2023-03-14T04:37:05;8.80;99.90
2955;DHT22;1487;51.470;6.938;2023-03-14T04:39:32;8.70;99.90
2955;DHT22;1487;51.470;6.938;2023-03-14T04:42:00;8.60;99.90
2955;DHT22;1487;51.470;6.938;2023-03-14T04:44:27;8.60;99.90
2955;DHT22;1487;51.470;6.938;2023-03-14T04:46:55;8.50;99.90
2955;DHT22;1487;51.470;6.938;2023-03-14T04:49:22;8.50;99.90
2955;DHT22;1487;51.470;6.938;2023-03-14T04:51:49;8.40;99.90
2955;DHT22;1487;51.470;6.938;2023-03-14T04:54:20;8.40;99.90
2955;DHT22;1487;51.470;6.938;2023-03-14T04:56:47;8.40;99.90
2955;DHT22;1487;51.470;6.938;2023-03-14T04:59:14;8.40;99.90
2955;DHT22;1487;51.470;6.938;2023-03-14T05:01:40;8.30;99.90
2955;DHT22;1487;51.470;6.938;2023-03-14T05:04:09;8.30;99.90
2955;DHT22;1487;51.470;6.938;2023-03-14T05:06:35;8.30;99.90
2955;DHT22;1487;51.470;6.938;2023-03-14T05:09:02;8.30;99.90
2955;DHT22;1487;51.470;6.938;2023-03-14T05:11:30;8.30;99.90
2955;DHT22;1487;51.470;6.938;2023-03-14T05:13:58;8.30;99.90
2955;DHT22;1487;51.470;6.938;2023-03-14T05:16:25;8.20;99.90
2955;DHT22;1487;51.470;6.938;2023-03-14T05:18:52;8.20;99.90
2955;DHT22;1487;51.470;6.938;2023-03-14T05:21:20;8.20;99.90
2955;DHT22;1487;51.470;6.938;2023-03-14T05:23:47;8.20;99.90
2955;DHT22;1487;51.470;6.938;2023-03-14T05:26:13;8.20;99.90
2955;DHT22;1487;51.470;6.938;2023-03-14T05:28:43;8.20;99.90
2955;DHT22;1487;51.470;6.938;2023-03-14T05:31:10;8.20;99.90
2955;DHT22;1487;51.470;6.938;2023-03-14T05:33:37;8.20;99.90
2955;DHT22;1487;51.470;6.938;2023-03-14T05:36:05;8.20;99.90
2955;DHT22;1487;51.470;6.938;2023-03-14T05:38:33;8.20;99.90
2955;DHT22;1487;51.470;6.938;2023-03-14T05:41:00;8.20;99.90
2955;DHT22;1487;51.470;6.938;2023-03-14T05:43:28;8.20;99.90
2955;DHT22;1487;51.470;6.938;2023-03-14T05:45:55;8.20;99.90
2955;DHT22;1487;51.470;6.938;2023-03-14T05:48:22;8.20;99.90
2955;DHT22;1487;51.470;6.938;2023-03-14T05:50:56;8.30;99.90
2955;DHT22;1487;51.470;6.938;2023-03-14T05:53:23;8.30;99.90
2955;DHT22;1487;51.470;6.938;2023-03-14T05:55:52;8.30;99.90
2955;DHT22;1487;51.470;6.938;2023-03-14T05:58:19;8.30;99.90
2955;DHT22;1487;51.470;6.938;2023-03-14T06:00:47;8.40;99.90
2955;DHT22;1487;51.470;6.938;2023-03-14T06:03:14;8.40;99.90
2955;DHT22;1487;51.470;6.938;2023-03-14T06:05:41;8.40;99.90
2955;DHT22;1487;51.470;6.938;2023-03-14T06:08:08;8.40;99.90
2955;DHT22;1487;51.470;6.938;2023-03-14T06:10:34;8.40;99.90
2955;DHT22;1487;51.470;6.938;2023-03-14T06:13:03;8.40;99.90
2955;DHT22;1487;51.470;6.938;2023-03-14T06:15:30;8.50;99.90
2955;DHT22;1487;51.470;6.938;2023-03-14T06:17:58;8.50;99.90
2955;DHT22;1487;51.470;6.938;2023-03-14T06:20:25;8.50;99.90
2955;DHT22;1487;51.470;6.938;2023-03-14T06:22:52;8.50;99.90
2955;DHT22;1487;51.470;6.938;2023-03-14T06:25:19;8.50;99.90
2955;DHT22;1487;51.470;6.938;2023-03-14T06:27:46;8.60;99.90
2955;DHT22;1487;51.470;6.938;2023-03-14T06:30:15;8.60;99.90
2955;DHT22;1487;51.470;6.938;2023-03-14T06:32:42;8.60;99.90
2955;DHT22;1487;51.470;6.938;2023-03-14T06:35:09;8.60;99.90
2955;DHT22;1487;51.470;6.938;2023-03-14T06:37:36;8.70;99.90
2955;DHT22;1487;51.470;6.938;2023-03-14T06:40:03;8.70;99.90
2955;DHT22;1487;51.470;6.938;2023-03-14T06:42:30;8.70;99.90
2955;DHT22;1487;51.470;6.938;2023-03-14T06:44:57;8.80;99.90
2955;DHT22;1487;51.470;6.938;2023-03-14T06:47:25;8.80;99.90
2955;DHT22;1487;51.470;6.938;2023-03-14T06:49:52;8.80;99.90
2955;DHT22;1487;51.470;6.938;2023-03-14T06:52:19;8.80;99.90
2955;DHT22;1487;51.470;6.938;2023-03-14T06:54:46;8.90;99.90
2955;DHT22;1487;51.470;6.938;2023-03-14T06:57:13;8.90;99.90
2955;DHT22;1487;51.470;6.938;2023-03-14T06:59:40;8.90;99.90
2955;DHT22;1487;51.470;6.938;2023-03-14T07:02:09;9.00;99.90
2955;DHT22;1487;51.470;6.938;2023-03-14T07:04:38;9.00;99.90
2955;DHT22;1487;51.470;6.938;2023-03-14T07:07:05;9.00;99.90
2955;DHT22;1487;51.470;6.938;2023-03-14T07:09:32;9.00;99.90
2955;DHT22;1487;51.470;6.938;2023-03-14T07:11:59;9.10;99.90
2955;DHT22;1487;51.470;6.938;2023-03-14T07:14:26;9.20;99.90
2955;DHT22;1487;51.470;6.938;2023-03-14T07:16:53;9.20;99.90
2955;DHT22;1487;51.470;6.938;2023-03-14T07:19:20;9.20;99.90
2955;DHT22;1487;51.470;6.938;2023-03-14T07:21:48;9.20;99.90
2955;DHT22;1487;51.470;6.938;2023-03-14T07:24:15;9.20;99.90
2955;DHT22;1487;51.470;6.938;2023-03-14T07:26:42;9.20;99.90
2955;DHT22;1487;51.470;6.938;2023-03-14T07:29:09;9.30;99.90
2955;DHT22;1487;51.470;6.938;2023-03-14T07:31:35;9.30;99.90
2955;DHT22;1487;51.470;6.938;2023-03-14T07:34:02;9.40;99.90
2955;DHT22;1487;51.470;6.938;2023-03-14T07:36:29;9.40;99.90
2955;DHT22;1487;51.470;6.938;2023-03-14T07:38:57;9.40;99.90
2955;DHT22;1487;51.470;6.938;2023-03-14T07:41:24;9.40;99.90
2955;DHT22;1487;51.470;6.938;2023-03-14T07:43:51;9.40;99.90
2955;DHT22;1487;51.470;6.938;2023-03-14T07:46:18;9.40;99.90
2955;DHT22;1487;51.470;6.938;2023-03-14T07:48:45;9.50;99.90
2955;DHT22;1487;51.470;6.938;2023-03-14T07:51:12;9.50;99.90
2955;DHT22;1487;51.470;6.938;2023-03-14T07:53:38;9.50;99.90
2955;DHT22;1487;51.470;6.938;2023-03-14T07:56:07;9.60;99.90
2955;DHT22;1487;51.470;6.938;2023-03-14T07:58:34;9.60;99.90
2955;DHT22;1487;51.470;6.938;2023-03-14T08:01:01;9.50;99.90
2955;DHT22;1487;51.470;6.938;2023-03-14T08:03:28;9.50;99.90
2955;DHT22;1487;51.470;6.938;2023-03-14T08:05:55;9.50;99.90
2955;DHT22;1487;51.470;6.938;2023-03-14T08:08:22;9.60;99.90
2955;DHT22;1487;51.470;6.938;2023-03-14T08:10:49;9.60;99.90
2955;DHT22;1487;51.470;6.938;2023-03-14T08:13:17;9.60;99.90
2955;DHT22;1487;51.470;6.938;2023-03-14T08:15:48;9.50;99.90
2955;DHT22;1487;51.470;6.938;2023-03-14T08:18:15;9.50;99.90
2955;DHT22;1487;51.470;6.938;2023-03-14T08:20:42;9.50;99.90
2955;DHT22;1487;51.470;6.938;2023-03-14T08:23:09;9.50;99.90
2955;DHT22;1487;51.470;6.938;2023-03-14T08:25:37;9.50;99.90
2955;DHT22;1487;51.470;6.938;2023-03-14T08:28:04;9.60;99.90
2955;DHT22;1487;51.470;6.938;2023-03-14T08:30:33;9.60;99.90
2955;DHT22;1487;51.470;6.938;2023-03-14T08:32:59;9.60;99.90
2955;DHT22;1487;51.470;6.938;2023-03-14T08:35:27;9.90;99.90
2955;DHT22;1487;51.470;6.938;2023-03-14T08:37:54;10.00;99.90
2955;DHT22;1487;51.470;6.938;2023-03-14T08:40:22;10.20;99.90
2955;DHT22;1487;51.470;6.938;2023-03-14T08:42:49;10.20;99.90
2955;DHT22;1487;51.470;6.938;2023-03-14T08:45:16;10.20;99.90
2955;DHT22;1487;51.470;6.938;2023-03-14T08:47:45;10.20;99.90
2955;DHT22;1487;51.470;6.938;2023-03-14T08:50:12;10.20;99.90
2955;DHT22;1487;51.470;6.938;2023-03-14T08:52:39;10.10;99.90
2955;DHT22;1487;51.470;6.938;2023-03-14T08:55:08;10.10;99.90
2955;DHT22;1487;51.470;6.938;2023-03-14T08:57:35;10.10;99.90
2955;DHT22;1487;51.470;6.938;2023-03-14T09:00:04;10.00;99.90
2955;DHT22;1487;51.470;6.938;2023-03-14T09:02:34;10.00;99.90
2955;DHT22;1487;51.470;6.938;2023-03-14T09:05:03;10.00;99.90
2955;DHT22;1487;51.470;6.938;2023-03-14T09:07:30;10.00;99.90
2955;DHT22;1487;51.470;6.938;2023-03-14T09:09:57;9.90;99.90
2955;DHT22;1487;51.470;6.938;2023-03-14T09:12:23;9.80;99.90
2955;DHT22;1487;51.470;6.938;2023-03-14T09:14:50;9.80;99.90
2955;DHT22;1487;51.470;6.938;2023-03-14T09:17:17;9.80;99.90
2955;DHT22;1487;51.470;6.938;2023-03-14T09:19:44;9.80;99.90
2955;DHT22;1487;51.470;6.938;2023-03-14T09:22:12;9.80;99.90
2955;DHT22;1487;51.470;6.938;2023-03-14T09:24:40;9.50;99.90
2955;DHT22;1487;51.470;6.938;2023-03-14T09:27:07;9.40;99.90
2955;DHT22;1487;51.470;6.938;2023-03-14T09:29:34;9.20;99.90
2955;DHT22;1487;51.470;6.938;2023-03-14T09:32:00;9.00;99.90
2955;DHT22;1487;51.470;6.938;2023-03-14T09:34:27;8.80;99.90
2955;DHT22;1487;51.470;6.938;2023-03-14T09:36:54;8.70;99.90
2955;DHT22;1487;51.470;6.938;2023-03-14T09:41:53;8.60;99.90
2955;DHT22;1487;51.470;6.938;2023-03-14T09:44:24;8.60;99.90
2955;DHT22;1487;51.470;6.938;2023-03-14T09:46:54;8.50;99.90
2955;DHT22;1487;51.470;6.938;2023-03-14T09:49:25;8.50;99.90
2955;DHT22;1487;51.470;6.938;2023-03-14T09:51:55;8.50;99.90
2955;DHT22;1487;51.470;6.938;2023-03-14T09:54:31;8.50;99.90
2955;DHT22;1487;51.470;6.938;2023-03-14T09:57:00;8.40;99.90
2955;DHT22;1487;51.470;6.938;2023-03-14T09:59:29;8.40;99.90
2955;DHT22;1487;51.470;6.938;2023-03-14T10:01:58;8.30;99.90
2955;DHT22;1487;51.470;6.938;2023-03-14T10:04:28;8.30;99.90
2955;DHT22;1487;51.470;6.938;2023-03-14T10:06:56;8.30;99.90
2955;DHT22;1487;51.470;6.938;2023-03-14T10:09:23;8.20;99.90
2955;DHT22;1487;51.470;6.938;2023-03-14T10:11:55;8.10;99.90
2955;DHT22;1487;51.470;6.938;2023-03-14T10:14:32;8.00;99.90
2955;DHT22;1487;51.470;6.938;2023-03-14T10:17:06;8.00;99.90
2955;DHT22;1487;51.470;6.938;2023-03-14T10:19:34;8.00;99.90
2955;DHT22;1487;51.470;6.938;2023-03-14T10:22:02;8.00;99.90
2955;DHT22;1487;51.470;6.938;2023-03-14T10:24:32;8.00;99.90
2955;DHT22;1487;51.470;6.938;2023-03-14T10:27:00;8.00;99.90
2955;DHT22;1487;51.470;6.938;2023-03-14T10:29:30;8.00;99.90
2955;DHT22;1487;51.470;6.938;2023-03-14T10:32:00;8.00;99.90
2955;DHT22;1487;51.470;6.938;2023-03-14T10:34:29;7.90;99.90
2955;DHT22;1487;51.470;6.938;2023-03-14T10:36:58;7.90;99.90
2955;DHT22;1487;51.470;6.938;2023-03-14T10:39:33;7.80;99.90
2955;DHT22;1487;51.470;6.938;2023-03-14T10:42:09;7.70;99.90
2955;DHT22;1487;51.470;6.938;2023-03-14T10:44:40;7.70;99.90
2955;DHT22;1487;51.470;6.938;2023-03-14T10:47:16;7.60;99.90
2955;DHT22;1487;51.470;6.938;2023-03-14T10:49:44;7.60;99.90
2955;DHT22;1487;51.470;6.938;2023-03-14T10:52:18;7.50;99.90
2955;DHT22;1487;51.470;6.938;2023-03-14T10:54:49;7.40;99.90
2955;DHT22;1487;51.470;6.938;2023-03-14T10:57:20;7.40;99.90
2955;DHT22;1487;51.470;6.938;2023-03-14T10:59:49;7.40;99.90
2955;DHT22;1487;51.470;6.938;2023-03-14T11:02:37;7.40;99.90
2955;DHT22;1487;51.470;6.938;2023-03-14T11:05:17;7.40;99.90
2955;DHT22;1487;51.470;6.938;2023-03-14T11:07:46;7.40;99.90
2955;DHT22;1487;51.470;6.938;2023-03-14T11:10:19;7.40;99.90
2955;DHT22;1487;51.470;6.938;2023-03-14T11:13:04;7.30;99.90
2955;DHT22;1487;51.470;6.938;2023-03-14T11:15:39;7.40;99.90
2955;DHT22;1487;51.470;6.938;2023-03-14T11:18:20;7.40;99.90
2955;DHT22;1487;51.470;6.938;2023-03-14T11:20:53;7.60;99.90
2955;DHT22;1487;51.470;6.938;2023-03-14T11:23:25;8.00;99.90
2955;DHT22;1487;51.470;6.938;2023-03-14T11:25:57;8.20;99.90
2955;DHT22;1487;51.470;6.938;2023-03-14T11:28:33;8.30;99.90
2955;DHT22;1487;51.470;6.938;2023-03-14T11:31:09;8.40;99.90
2955;DHT22;1487;51.470;6.938;2023-03-14T11:33:39;8.40;99.90
2955;DHT22;1487;51.470;6.938;2023-03-14T11:36:15;8.60;99.90
2955;DHT22;1487;51.470;6.938;2023-03-14T11:38:47;8.80;99.90
2955;DHT22;1487;51.470;6.938;2023-03-14T11:41:18;8.90;99.90
2955;DHT22;1487;51.470;6.938;2023-03-14T11:43:48;9.10;99.90
2955;DHT22;1487;51.470;6.938;2023-03-14T11:46:18;8.70;99.90
2955;DHT22;1487;51.470;6.938;2023-03-14T11:48:54;8.40;99.90
2955;DHT22;1487;51.470;6.938;2023-03-14T11:51:25;8.30;99.90
2955;DHT22;1487;51.470;6.938;2023-03-14T11:53:58;8.40;99.90
2955;DHT22;1487;51.470;6.938;2023-03-14T11:56:33;8.30;99.90
2955;DHT22;1487;51.470;6.938;2023-03-14T11:59:04;8.10;99.90
2955;DHT22;1487;51.470;6.938;2023-03-14T12:01:45;8.00;99.90
2955;DHT22;1487;51.470;6.938;2023-03-14T12:04:25;8.20;99.90
2955;DHT22;1487;51.470;6.938;2023-03-14T12:06:56;8.50;99.90
2955;DHT22;1487;51.470;6.938;2023-03-14T12:09:23;9.20;99.90
2955;DHT22;1487;51.470;6.938;2023-03-14T12:11:54;9.70;99.90
2955;DHT22;1487;51.470;6.938;2023-03-14T12:14:25;9.80;99.90
2955;DHT22;1487;51.470;6.938;2023-03-14T12:16:56;9.90;99.90
2955;DHT22;1487;51.470;6.938;2023-03-14T12:19:32;10.30;99.90
2955;DHT22;1487;51.470;6.938;2023-03-14T12:22:05;10.80;99.90
2955;DHT22;1487;51.470;6.938;2023-03-14T12:24:36;11.60;99.90
2955;DHT22;1487;51.470;6.938;2023-03-14T12:27:05;12.40;99.90
2955;DHT22;1487;51.470;6.938;2023-03-14T12:29:57;13.00;99.90
2955;DHT22;1487;51.470;6.938;2023-03-14T12:32:26;12.80;99.90
2955;DHT22;1487;51.470;6.938;2023-03-14T12:34:53;12.80;99.90
2955;DHT22;1487;51.470;6.938;2023-03-14T12:37:28;12.30;99.90
2955;DHT22;1487;51.470;6.938;2023-03-14T12:40:11;11.70;99.90
2955;DHT22;1487;51.470;6.938;2023-03-14T12:42:56;10.80;99.90
2955;DHT22;1487;51.470;6.938;2023-03-14T12:45:27;10.30;99.90
2955;DHT22;1487;51.470;6.938;2023-03-14T12:48:03;9.80;99.90
2955;DHT22;1487;51.470;6.938;2023-03-14T12:50:34;9.00;99.90
2955;DHT22;1487;51.470;6.938;2023-03-14T12:56:24;8.30;99.90
2955;DHT22;1487;51.470;6.938;2023-03-14T12:59:13;8.30;99.90
2955;DHT22;1487;51.470;6.938;2023-03-14T13:01:48;8.20;99.90
2955;DHT22;1487;51.470;6.938;2023-03-14T13:04:27;8.00;99.90
2955;DHT22;1487;51.470;6.938;2023-03-14T13:06:55;8.30;99.90
2955;DHT22;1487;51.470;6.938;2023-03-14T13:12:51;9.20;99.90
2955;DHT22;1487;51.470;6.938;2023-03-14T13:15:21;9.10;99.90
2955;DHT22;1487;51.470;6.938;2023-03-14T13:17:51;8.90;99.90
2955;DHT22;1487;51.470;6.938;2023-03-14T13:20:26;8.60;99.90
2955;DHT22;1487;51.470;6.938;2023-03-14T13:22:54;8.30;99.90
2955;DHT22;1487;51.470;6.938;2023-03-14T13:25:21;7.90;99.90
2955;DHT22;1487;51.470;6.938;2023-03-14T13:27:48;7.60;99.90
2955;DHT22;1487;51.470;6.938;2023-03-14T13:30:20;7.50;99.90
2955;DHT22;1487;51.470;6.938;2023-03-14T13:32:49;7.40;99.90
2955;DHT22;1487;51.470;6.938;2023-03-14T13:35:19;7.40;99.90
2955;DHT22;1487;51.470;6.938;2023-03-14T13:37:52;7.60;99.90
2955;DHT22;1487;51.470;6.938;2023-03-14T13:40:24;7.80;99.90
2955;DHT22;1487;51.470;6.938;2023-03-14T13:43:04;8.00;99.90
2955;DHT22;1487;51.470;6.938;2023-03-14T13:45:41;7.90;99.90
2955;DHT22;1487;51.470;6.938;2023-03-14T13:48:12;8.00;99.90
2955;DHT22;1487;51.470;6.938;2023-03-14T13:50:46;8.40;99.90
2955;DHT22;1487;51.470;6.938;2023-03-14T13:53:14;9.10;99.90
2955;DHT22;1487;51.470;6.938;2023-03-14T13:55:41;9.40;99.90
2955;DHT22;1487;51.470;6.938;2023-03-14T13:58:21;9.80;99.90
2955;DHT22;1487;51.470;6.938;2023-03-14T14:01:06;11.10;99.90
2955;DHT22;1487;51.470;6.938;2023-03-14T14:03:39;12.00;99.90
2955;DHT22;1487;51.470;6.938;2023-03-14T14:06:10;12.20;99.90
2955;DHT22;1487;51.470;6.938;2023-03-14T14:08:41;12.20;99.90
2955;DHT22;1487;51.470;6.938;2023-03-14T14:11:17;12.00;99.90
2955;DHT22;1487;51.470;6.938;2023-03-14T14:13:45;11.80;99.90
2955;DHT22;1487;51.470;6.938;2023-03-14T14:16:12;11.40;99.90
2955;DHT22;1487;51.470;6.938;2023-03-14T14:18:40;11.00;99.90
2955;DHT22;1487;51.470;6.938;2023-03-14T14:21:09;11.00;99.90
2955;DHT22;1487;51.470;6.938;2023-03-14T14:23:38;11.60;99.90
2955;DHT22;1487;51.470;6.938;2023-03-14T14:26:06;12.10;99.90
2955;DHT22;1487;51.470;6.938;2023-03-14T14:28:35;12.80;99.90
2955;DHT22;1487;51.470;6.938;2023-03-14T14:31:15;13.20;99.10
2955;DHT22;1487;51.470;6.938;2023-03-14T14:33:45;13.40;93.20
2955;DHT22;1487;51.470;6.938;2023-03-14T14:36:17;13.20;92.10
2955;DHT22;1487;51.470;6.938;2023-03-14T14:38:52;13.10;88.60
2955;DHT22;1487;51.470;6.938;2023-03-14T14:41:21;13.40;90.00
2955;DHT22;1487;51.470;6.938;2023-03-14T14:43:48;13.50;82.90
2955;DHT22;1487;51.470;6.938;2023-03-14T14:46:18;13.30;81.40
2955;DHT22;1487;51.470;6.938;2023-03-14T14:48:46;13.00;78.70
2955;DHT22;1487;51.470;6.938;2023-03-14T14:51:24;13.10;80.60
2955;DHT22;1487;51.470;6.938;2023-03-14T14:54:04;13.10;79.20
2955;DHT22;1487;51.470;6.938;2023-03-14T14:56:35;13.10;78.50
2955;DHT22;1487;51.470;6.938;2023-03-14T14:59:03;13.10;79.20
2955;DHT22;1487;51.470;6.938;2023-03-14T15:01:34;12.70;80.60
2955;DHT22;1487;51.470;6.938;2023-03-14T15:04:01;12.20;77.70
2955;DHT22;1487;51.470;6.938;2023-03-14T15:06:29;12.00;80.90
2955;DHT22;1487;51.470;6.938;2023-03-14T15:08:57;11.60;80.30
2955;DHT22;1487;51.470;6.938;2023-03-14T15:11:25;11.20;81.80
2955;DHT22;1487;51.470;6.938;2023-03-14T15:13:54;10.80;83.10
2955;DHT22;1487;51.470;6.938;2023-03-14T15:16:22;10.60;83.40
2955;DHT22;1487;51.470;6.938;2023-03-14T15:18:53;10.40;80.80
2955;DHT22;1487;51.470;6.938;2023-03-14T15:21:21;10.20;81.30
2955;DHT22;1487;51.470;6.938;2023-03-14T15:23:48;10.20;85.70
2955;DHT22;1487;51.470;6.938;2023-03-14T15:26:18;10.00;80.30
2955;DHT22;1487;51.470;6.938;2023-03-14T15:28:45;9.70;83.80
2955;DHT22;1487;51.470;6.938;2023-03-14T15:31:15;9.50;83.80
2955;DHT22;1487;51.470;6.938;2023-03-14T15:33:43;9.20;85.00
2955;DHT22;1487;51.470;6.938;2023-03-14T15:36:20;9.10;89.30
2955;DHT22;1487;51.470;6.938;2023-03-14T15:38:48;8.70;87.50
2955;DHT22;1487;51.470;6.938;2023-03-14T15:41:15;8.50;91.30
2955;DHT22;1487;51.470;6.938;2023-03-14T15:43:42;8.50;90.80
2955;DHT22;1487;51.470;6.938;2023-03-14T15:46:09;8.60;96.10
2955;DHT22;1487;51.470;6.938;2023-03-14T15:48:37;8.50;93.70
2955;DHT22;1487;51.470;6.938;2023-03-14T15:51:05;8.50;99.60
2955;DHT22;1487;51.470;6.938;2023-03-14T15:53:31;8.40;99.90
2955;DHT22;1487;51.470;6.938;2023-03-14T15:55:58;8.30;99.90
2955;DHT22;1487;51.470;6.938;2023-03-14T15:58:25;8.10;99.90
2955;DHT22;1487;51.470;6.938;2023-03-14T16:00:52;8.10;99.90
2955;DHT22;1487;51.470;6.938;2023-03-14T16:03:19;8.10;99.90
2955;DHT22;1487;51.470;6.938;2023-03-14T16:05:47;8.10;99.90
2955;DHT22;1487;51.470;6.938;2023-03-14T16:08:14;8.10;99.90
2955;DHT22;1487;51.470;6.938;2023-03-14T16:10:42;8.10;99.90
2955;DHT22;1487;51.470;6.938;2023-03-14T16:13:09;7.90;99.90
2955;DHT22;1487;51.470;6.938;2023-03-14T16:15:36;7.90;99.90
2955;DHT22;1487;51.470;6.938;2023-03-14T16:18:03;8.00;99.90
2955;DHT22;1487;51.470;6.938;2023-03-14T16:20:30;7.90;99.50
2955;DHT22;1487;51.470;6.938;2023-03-14T16:22:58;7.80;98.70
2955;DHT22;1487;51.470;6.938;2023-03-14T16:25:25;7.80;99.90
2955;DHT22;1487;51.470;6.938;2023-03-14T16:27:51;7.70;99.90
2955;DHT22;1487;51.470;6.938;2023-03-14T16:30:18;7.60;99.90
2955;DHT22;1487;51.470;6.938;2023-03-14T16:32:45;7.50;99.90
2955;DHT22;1487;51.470;6.938;2023-03-14T16:35:13;7.40;99.90